sensor_id;sensor_type;location;lat;lon;timestamp;temperature;humidity
25556;DHT22;13447;57.174;-2.112;2022-12-18T00:41:33;-2.20;99.90
25556;DHT22;13447;57.174;-2.112;2022-12-18T00:44:20;-2.20;99.90
25556;DHT22;13447;57.174;-2.112;2022-12-18T00:46:48;-2.20;99.90
25556;DHT22;13447;57.174;-2.112;2022-12-18T00:49:17;-2.20;99.90
25556;DHT22;13447;57.174;-2.112;2022-12-18T00:51:45;-2.10;99.90
25556;DHT22;13447;57.174;-2.112;2022-12-18T00:54:12;-2.10;99.90
25556;DHT22;13447;57.174;-2.112;2022-12-18T00:56:39;-2.10;99.90
25556;DHT22;13447;57.174;-2.112;2022-12-18T00:59:15;-2.10;99.90
25556;DHT22;13447;57.174;-2.112;2022-12-18T01:01:43;-2.00;99.90
25556;DHT22;13447;57.174;-2.112;2022-12-18T01:04:10;-1.90;99.90
25556;DHT22;13447;57.174;-2.112;2022-12-18T01:06:37;-1.90;99.90
25556;DHT22;13447;57.174;-2.112;2022-12-18T01:09:04;-1.90;99.90
25556;DHT22;13447;57.174;-2.112;2022-12-18T01:11:31;-1.90;99.90
25556;DHT22;13447;57.174;-2.112;2022-12-18T01:13:58;-1.80;99.90
25556;DHT22;13447;57.174;-2.112;2022-12-18T01:16:25;-1.80;99.90
25556;DHT22;13447;57.174;-2.112;2022-12-18T01:18:53;-1.80;99.90
25556;DHT22;13447;57.174;-2.112;2022-12-18T01:21:22;-1.90;99.90
25556;DHT22;13447;57.174;-2.112;2022-12-18T01:23:56;-2.00;99.90
25556;DHT22;13447;57.174;-2.112;2022-12-18T01:26:25;-2.10;99.90
25556;DHT22;13447;57.174;-2.112;2022-12-18T01:28:54;-2.00;99.90
25556;DHT22;13447;57.174;-2.112;2022-12-18T01:31:24;-2.00;99.90
25556;DHT22;13447;57.174;-2.112;2022-12-18T01:33:53;-2.00;99.90
25556;DHT22;13447;57.174;-2.112;2022-12-18T01:36:22;-2.00;99.90
25556;DHT22;13447;57.174;-2.112;2022-12-18T01:38:50;-2.00;99.90
25556;DHT22;13447;57.174;-2.112;2022-12-18T01:41:22;-2.00;99.90
25556;DHT22;13447;57.174;-2.112;2022-12-18T01:43:55;-2.00;99.90
25556;DHT22;13447;57.174;-2.112;2022-12-18T01:46:24;-2.10;99.90
25556;DHT22;13447;57.174;-2.112;2022-12-18T01:49:00;-2.10;99.90
25556;DHT22;13447;57.174;-2.112;2022-12-18T01:51:28;-2.20;99.90
25556;DHT22;13447;57.174;-2.112;2022-12-18T01:53:57;-2.20;99.90
25556;DHT22;13447;57.174;-2.112;2022-12-18T01:56:24;-2.20;99.90
25556;DHT22;13447;57.174;-2.112;2022-12-18T01:59:03;-2.20;99.90
25556;DHT22;13447;57.174;-2.112;2022-12-18T02:01:31;-2.30;99.90
25556;DHT22;13447;57.174;-2.112;2022-12-18T02:04:38;-2.30;99.90
25556;DHT22;13447;57.174;-2.112;2022-12-18T02:07:17;-2.30;99.90
25556;DHT22;13447;57.174;-2.112;2022-12-18T02:09:59;-2.30;99.90
25556;DHT22;13447;57.174;-2.112;2022-12-18T02:12:42;-2.30;99.90
25556;DHT22;13447;57.174;-2.112;2022-12-18T02:18:38;-2.60;99.90
25556;DHT22;13447;57.174;-2.112;2022-12-18T02:24:33;-2.60;99.90
25556;DHT22;13447;57.174;-2.112;2022-12-18T02:27:09;-2.70;99.90
25556;DHT22;13447;57.174;-2.112;2022-12-18T02:29:57;-2.80;99.90
25556;DHT22;13447;57.174;-2.112;2022-12-18T02:32:29;-2.70;99.90
25556;DHT22;13447;57.174;-2.112;2022-12-18T02:34:58;-2.70;99.90
25556;DHT22;13447;57.174;-2.112;2022-12-18T02:37:27;-2.70;99.90
25556;DHT22;13447;57.174;-2.112;2022-12-18T02:39:56;-2.80;99.90
25556;DHT22;13447;57.174;-2.112;2022-12-18T02:42:24;-2.80;99.90
25556;DHT22;13447;57.174;-2.112;2022-12-18T02:44:51;-2.80;99.90
25556;DHT22;13447;57.174;-2.112;2022-12-18T02:47:22;-2.80;99.90
25556;DHT22;13447;57.174;-2.112;2022-12-18T02:50:05;-2.80;99.90
25556;DHT22;13447;57.174;-2.112;2022-12-18T02:53:01;-2.80;99.90
25556;DHT22;13447;57.174;-2.112;2022-12-18T02:58:26;-2.70;99.90
25556;DHT22;13447;57.174;-2.112;2022-12-18T03:01:11;-2.70;99.90
25556;DHT22;13447;57.174;-2.112;2022-12-18T03:03:52;-2.70;99.90
25556;DHT22;13447;57.174;-2.112;2022-12-18T03:06:41;-2.80;99.90
25556;DHT22;13447;57.174;-2.112;2022-12-18T03:09:14;-2.80;99.90
25556;DHT22;13447;57.174;-2.112;2022-12-18T03:11:46;-2.90;99.90
25556;DHT22;13447;57.174;-2.112;2022-12-18T03:14:34;-2.90;99.90
25556;DHT22;13447;57.174;-2.112;2022-12-18T03:17:05;-2.90;99.90
25556;DHT22;13447;57.174;-2.112;2022-12-18T03:19:35;-3.00;99.90
25556;DHT22;13447;57.174;-2.112;2022-12-18T03:22:06;-3.00;99.90
25556;DHT22;13447;57.174;-2.112;2022-12-18T03:24:35;-3.00;99.90
25556;DHT22;13447;57.174;-2.112;2022-12-18T03:27:10;-3.00;99.90
25556;DHT22;13447;57.174;-2.112;2022-12-18T03:29:45;-3.00;99.90
25556;DHT22;13447;57.174;-2.112;2022-12-18T03:32:24;-2.90;99.90
25556;DHT22;13447;57.174;-2.112;2022-12-18T03:34:53;-3.00;99.90
25556;DHT22;13447;57.174;-2.112;2022-12-18T03:37:22;-3.00;99.90
25556;DHT22;13447;57.174;-2.112;2022-12-18T03:39:49;-3.00;99.90
25556;DHT22;13447;57.174;-2.112;2022-12-18T03:42:23;-3.00;99.90
25556;DHT22;13447;57.174;-2.112;2022-12-18T03:45:12;-3.00;99.90
25556;DHT22;13447;57.174;-2.112;2022-12-18T03:47:51;-3.10;99.90
25556;DHT22;13447;57.174;-2.112;2022-12-18T03:50:25;-3.20;99.90
25556;DHT22;13447;57.174;-2.112;2022-12-18T03:55:33;-3.50;99.90
25556;DHT22;13447;57.174;-2.112;2022-12-18T03:58:02;-3.50;99.90
25556;DHT22;13447;57.174;-2.112;2022-12-18T04:00:31;-3.50;99.90
25556;DHT22;13447;57.174;-2.112;2022-12-18T04:03:00;-3.50;99.90
25556;DHT22;13447;57.174;-2.112;2022-12-18T04:05:28;-3.50;99.90
25556;DHT22;13447;57.174;-2.112;2022-12-18T04:07:56;-3.60;99.90
25556;DHT22;13447;57.174;-2.112;2022-12-18T04:10:24;-3.70;99.90
25556;DHT22;13447;57.174;-2.112;2022-12-18T04:12:55;-3.80;99.90
25556;DHT22;13447;57.174;-2.112;2022-12-18T04:15:22;-3.80;99.90
25556;DHT22;13447;57.174;-2.112;2022-12-18T04:17:50;-3.90;99.90
25556;DHT22;13447;57.174;-2.112;2022-12-18T04:20:17;-3.90;99.90
25556;DHT22;13447;57.174;-2.112;2022-12-18T04:22:44;-3.90;99.90
25556;DHT22;13447;57.174;-2.112;2022-12-18T04:25:12;-3.90;99.90
25556;DHT22;13447;57.174;-2.112;2022-12-18T04:27:39;-3.90;99.90
25556;DHT22;13447;57.174;-2.112;2022-12-18T04:30:06;-4.00;99.90
25556;DHT22;13447;57.174;-2.112;2022-12-18T04:32:34;-4.00;99.90
25556;DHT22;13447;57.174;-2.112;2022-12-18T04:35:01;-4.00;99.90
25556;DHT22;13447;57.174;-2.112;2022-12-18T04:37:30;-4.00;99.90
25556;DHT22;13447;57.174;-2.112;2022-12-18T04:39:57;-4.00;99.90
25556;DHT22;13447;57.174;-2.112;2022-12-18T04:42:24;-4.00;99.90
25556;DHT22;13447;57.174;-2.112;2022-12-18T04:44:51;-4.00;99.90
25556;DHT22;13447;57.174;-2.112;2022-12-18T04:47:18;-4.00;99.90
25556;DHT22;13447;57.174;-2.112;2022-12-18T04:49:45;-4.10;99.90
25556;DHT22;13447;57.174;-2.112;2022-12-18T04:52:12;-4.10;99.90
25556;DHT22;13447;57.174;-2.112;2022-12-18T04:54:38;-4.00;99.90
25556;DHT22;13447;57.174;-2.112;2022-12-18T04:57:05;-4.00;99.90
25556;DHT22;13447;57.174;-2.112;2022-12-18T04:59:32;-4.00;99.90
25556;DHT22;13447;57.174;-2.112;2022-12-18T05:01:59;-4.10;99.90
25556;DHT22;13447;57.174;-2.112;2022-12-18T05:04:26;-4.10;99.90
25556;DHT22;13447;57.174;-2.112;2022-12-18T05:06:53;-4.20;99.90
25556;DHT22;13447;57.174;-2.112;2022-12-18T05:09:20;-4.30;99.90
25556;DHT22;13447;57.174;-2.112;2022-12-18T05:11:47;-4.30;99.90
25556;DHT22;13447;57.174;-2.112;2022-12-18T05:14:14;-4.20;99.90
25556;DHT22;13447;57.174;-2.112;2022-12-18T05:16:41;-4.20;99.90
25556;DHT22;13447;57.174;-2.112;2022-12-18T05:19:09;-4.20;99.90
25556;DHT22;13447;57.174;-2.112;2022-12-18T05:21:37;-4.30;99.90
25556;DHT22;13447;57.174;-2.112;2022-12-18T05:24:04;-4.40;99.90
25556;DHT22;13447;57.174;-2.112;2022-12-18T05:26:31;-4.40;99.90
25556;DHT22;13447;57.174;-2.112;2022-12-18T05:28:58;-4.40;99.90
25556;DHT22;13447;57.174;-2.112;2022-12-18T05:31:25;-4.40;99.90
25556;DHT22;13447;57.174;-2.112;2022-12-18T05:33:52;-4.40;99.90
25556;DHT22;13447;57.174;-2.112;2022-12-18T05:36:19;-4.40;99.90
25556;DHT22;13447;57.174;-2.112;2022-12-18T05:38:46;-4.40;99.90
25556;DHT22;13447;57.174;-2.112;2022-12-18T05:41:13;-4.30;99.90
25556;DHT22;13447;57.174;-2.112;2022-12-18T05:43:40;-4.30;99.90
25556;DHT22;13447;57.174;-2.112;2022-12-18T05:46:12;-4.20;99.90
25556;DHT22;13447;57.174;-2.112;2022-12-18T05:48:39;-4.20;99.90
25556;DHT22;13447;57.174;-2.112;2022-12-18T05:51:09;-4.20;99.90
25556;DHT22;13447;57.174;-2.112;2022-12-18T05:53:37;-4.20;99.90
25556;DHT22;13447;57.174;-2.112;2022-12-18T05:56:07;-4.30;99.90
25556;DHT22;13447;57.174;-2.112;2022-12-18T05:58:35;-4.20;99.90
25556;DHT22;13447;57.174;-2.112;2022-12-18T06:01:14;-4.10;99.90
25556;DHT22;13447;57.174;-2.112;2022-12-18T06:03:41;-4.00;99.90
25556;DHT22;13447;57.174;-2.112;2022-12-18T06:06:20;-4.10;99.90
25556;DHT22;13447;57.174;-2.112;2022-12-18T06:08:48;-4.00;99.90
25556;DHT22;13447;57.174;-2.112;2022-12-18T06:11:20;-4.00;99.90
25556;DHT22;13447;57.174;-2.112;2022-12-18T06:13:50;-4.10;99.90
25556;DHT22;13447;57.174;-2.112;2022-12-18T06:16:24;-4.10;99.90
25556;DHT22;13447;57.174;-2.112;2022-12-18T06:18:51;-4.20;99.90
25556;DHT22;13447;57.174;-2.112;2022-12-18T06:21:18;-4.20;99.90
25556;DHT22;13447;57.174;-2.112;2022-12-18T06:23:45;-4.30;99.90
25556;DHT22;13447;57.174;-2.112;2022-12-18T06:26:12;-4.30;99.90
25556;DHT22;13447;57.174;-2.112;2022-12-18T06:28:39;-4.30;99.90
25556;DHT22;13447;57.174;-2.112;2022-12-18T06:31:08;-4.30;99.90
25556;DHT22;13447;57.174;-2.112;2022-12-18T06:33:36;-4.30;99.90
25556;DHT22;13447;57.174;-2.112;2022-12-18T06:36:06;-4.40;99.90
25556;DHT22;13447;57.174;-2.112;2022-12-18T06:38:35;-4.40;99.90
25556;DHT22;13447;57.174;-2.112;2022-12-18T06:41:07;-4.40;99.90
25556;DHT22;13447;57.174;-2.112;2022-12-18T06:43:34;-4.40;99.90
25556;DHT22;13447;57.174;-2.112;2022-12-18T06:46:02;-4.40;99.90
25556;DHT22;13447;57.174;-2.112;2022-12-18T06:48:30;-4.50;99.90
25556;DHT22;13447;57.174;-2.112;2022-12-18T06:50:57;-4.50;99.90
25556;DHT22;13447;57.174;-2.112;2022-12-18T06:53:24;-4.50;99.90
25556;DHT22;13447;57.174;-2.112;2022-12-18T06:55:51;-4.40;99.90
25556;DHT22;13447;57.174;-2.112;2022-12-18T06:58:18;-4.30;99.90
25556;DHT22;13447;57.174;-2.112;2022-12-18T07:00:45;-4.30;99.90
25556;DHT22;13447;57.174;-2.112;2022-12-18T07:03:13;-4.30;99.90
25556;DHT22;13447;57.174;-2.112;2022-12-18T07:05:40;-4.30;99.90
25556;DHT22;13447;57.174;-2.112;2022-12-18T07:08:07;-4.30;99.90
25556;DHT22;13447;57.174;-2.112;2022-12-18T07:10:43;-4.30;99.90
25556;DHT22;13447;57.174;-2.112;2022-12-18T07:13:13;-4.30;99.90
25556;DHT22;13447;57.174;-2.112;2022-12-18T07:15:41;-4.30;99.90
25556;DHT22;13447;57.174;-2.112;2022-12-18T07:18:09;-4.30;99.90
25556;DHT22;13447;57.174;-2.112;2022-12-18T07:20:36;-4.30;99.90
25556;DHT22;13447;57.174;-2.112;2022-12-18T07:23:04;-4.30;99.90
25556;DHT22;13447;57.174;-2.112;2022-12-18T07:25:35;-4.20;99.90
25556;DHT22;13447;57.174;-2.112;2022-12-18T07:28:03;-4.30;99.90
25556;DHT22;13447;57.174;-2.112;2022-12-18T07:30:30;-4.30;99.90
25556;DHT22;13447;57.174;-2.112;2022-12-18T07:32:57;-4.20;99.90
25556;DHT22;13447;57.174;-2.112;2022-12-18T07:35:24;-4.30;99.90
25556;DHT22;13447;57.174;-2.112;2022-12-18T07:37:51;-4.30;99.90
25556;DHT22;13447;57.174;-2.112;2022-12-18T07:40:18;-4.10;99.90
25556;DHT22;13447;57.174;-2.112;2022-12-18T07:42:45;-4.10;99.90
25556;DHT22;13447;57.174;-2.112;2022-12-18T07:45:12;-3.90;99.90
25556;DHT22;13447;57.174;-2.112;2022-12-18T07:47:39;-3.90;99.90
25556;DHT22;13447;57.174;-2.112;2022-12-18T07:50:08;-3.90;99.90
25556;DHT22;13447;57.174;-2.112;2022-12-18T07:52:35;-3.80;99.90
25556;DHT22;13447;57.174;-2.112;2022-12-18T07:55:02;-3.80;99.90
25556;DHT22;13447;57.174;-2.112;2022-12-18T07:57:29;-3.80;99.90
25556;DHT22;13447;57.174;-2.112;2022-12-18T08:00:16;-3.70;99.90
25556;DHT22;13447;57.174;-2.112;2022-12-18T08:02:43;-3.70;99.90
25556;DHT22;13447;57.174;-2.112;2022-12-18T08:05:10;-3.60;99.90
25556;DHT22;13447;57.174;-2.112;2022-12-18T08:07:37;-3.60;99.90
25556;DHT22;13447;57.174;-2.112;2022-12-18T08:10:05;-3.60;99.90
25556;DHT22;13447;57.174;-2.112;2022-12-18T08:12:32;-3.50;99.90
25556;DHT22;13447;57.174;-2.112;2022-12-18T08:14:59;-3.50;99.90
25556;DHT22;13447;57.174;-2.112;2022-12-18T08:17:26;-3.50;99.90
25556;DHT22;13447;57.174;-2.112;2022-12-18T08:19:53;-3.40;99.90
25556;DHT22;13447;57.174;-2.112;2022-12-18T08:22:20;-3.50;99.90
25556;DHT22;13447;57.174;-2.112;2022-12-18T08:24:46;-3.50;99.90
25556;DHT22;13447;57.174;-2.112;2022-12-18T08:27:13;-3.50;99.90
25556;DHT22;13447;57.174;-2.112;2022-12-18T08:29:57;-3.50;99.90
25556;DHT22;13447;57.174;-2.112;2022-12-18T08:32:25;-3.50;99.90
25556;DHT22;13447;57.174;-2.112;2022-12-18T08:34:52;-3.40;99.90
25556;DHT22;13447;57.174;-2.112;2022-12-18T08:37:20;-3.30;99.90
25556;DHT22;13447;57.174;-2.112;2022-12-18T08:39:47;-3.30;99.90
25556;DHT22;13447;57.174;-2.112;2022-12-18T08:42:14;-3.30;99.90
25556;DHT22;13447;57.174;-2.112;2022-12-18T08:44:59;-3.20;99.90
25556;DHT22;13447;57.174;-2.112;2022-12-18T08:47:26;-3.20;99.90
25556;DHT22;13447;57.174;-2.112;2022-12-18T08:49:53;-3.20;99.90
25556;DHT22;13447;57.174;-2.112;2022-12-18T08:52:20;-3.20;99.90
25556;DHT22;13447;57.174;-2.112;2022-12-18T08:54:47;-3.10;99.90
25556;DHT22;13447;57.174;-2.112;2022-12-18T08:57:13;-3.10;99.90
25556;DHT22;13447;57.174;-2.112;2022-12-18T08:59:40;-3.10;99.90
25556;DHT22;13447;57.174;-2.112;2022-12-18T09:02:10;-3.00;99.90
25556;DHT22;13447;57.174;-2.112;2022-12-18T09:04:37;-2.90;99.90
25556;DHT22;13447;57.174;-2.112;2022-12-18T09:07:04;-3.00;99.90
25556;DHT22;13447;57.174;-2.112;2022-12-18T09:09:31;-2.90;99.90
25556;DHT22;13447;57.174;-2.112;2022-12-18T09:11:58;-2.90;99.90
25556;DHT22;13447;57.174;-2.112;2022-12-18T09:14:25;-2.80;99.90
25556;DHT22;13447;57.174;-2.112;2022-12-18T09:16:52;-2.80;99.90
25556;DHT22;13447;57.174;-2.112;2022-12-18T09:19:19;-2.70;99.90
25556;DHT22;13447;57.174;-2.112;2022-12-18T09:21:45;-2.70;99.90
25556;DHT22;13447;57.174;-2.112;2022-12-18T09:24:14;-2.60;99.90
25556;DHT22;13447;57.174;-2.112;2022-12-18T09:26:42;-2.50;99.90
25556;DHT22;13447;57.174;-2.112;2022-12-18T09:29:13;-2.50;99.90
25556;DHT22;13447;57.174;-2.112;2022-12-18T09:31:42;-2.50;99.90
25556;DHT22;13447;57.174;-2.112;2022-12-18T09:34:08;-2.40;99.90
25556;DHT22;13447;57.174;-2.112;2022-12-18T09:36:35;-2.40;99.90
25556;DHT22;13447;57.174;-2.112;2022-12-18T09:39:03;-2.30;99.90
25556;DHT22;13447;57.174;-2.112;2022-12-18T09:41:54;-2.30;99.90
25556;DHT22;13447;57.174;-2.112;2022-12-18T09:44:38;-2.30;99.90
25556;DHT22;13447;57.174;-2.112;2022-12-18T09:49:42;-2.20;99.90
25556;DHT22;13447;57.174;-2.112;2022-12-18T09:52:19;-2.10;99.90
25556;DHT22;13447;57.174;-2.112;2022-12-18T09:54:55;-2.10;99.90
25556;DHT22;13447;57.174;-2.112;2022-12-18T09:57:24;-2.00;99.90
25556;DHT22;13447;57.174;-2.112;2022-12-18T09:59:59;-2.00;99.90
25556;DHT22;13447;57.174;-2.112;2022-12-18T10:02:30;-2.00;99.90
25556;DHT22;13447;57.174;-2.112;2022-12-18T10:05:06;-1.90;99.90
25556;DHT22;13447;57.174;-2.112;2022-12-18T10:10:32;-1.10;99.90
25556;DHT22;13447;57.174;-2.112;2022-12-18T10:13:34;-0.50;1.00
25556;DHT22;13447;57.174;-2.112;2022-12-18T10:16:15;0.50;1.00
25556;DHT22;13447;57.174;-2.112;2022-12-18T10:19:16;0.90;1.00
25556;DHT22;13447;57.174;-2.112;2022-12-18T10:22:35;2.10;1.00
25556;DHT22;13447;57.174;-2.112;2022-12-18T10:27:32;2.80;1.00
25556;DHT22;13447;57.174;-2.112;2022-12-18T10:30:04;2.80;1.00
25556;DHT22;13447;57.174;-2.112;2022-12-18T10:32:38;2.80;1.00
25556;DHT22;13447;57.174;-2.112;2022-12-18T10:35:20;2.70;1.00
25556;DHT22;13447;57.174;-2.112;2022-12-18T10:40:59;3.10;1.00
25556;DHT22;13447;57.174;-2.112;2022-12-18T10:43:32;3.30;1.00
25556;DHT22;13447;57.174;-2.112;2022-12-18T10:48:40;3.60;1.00
25556;DHT22;13447;57.174;-2.112;2022-12-18T10:51:33;3.90;1.00
25556;DHT22;13447;57.174;-2.112;2022-12-18T10:56:34;4.10;1.00
25556;DHT22;13447;57.174;-2.112;2022-12-18T10:59:06;4.30;1.00
25556;DHT22;13447;57.174;-2.112;2022-12-18T11:01:50;4.30;1.00
25556;DHT22;13447;57.174;-2.112;2022-12-18T11:04:31;4.30;1.00
25556;DHT22;13447;57.174;-2.112;2022-12-18T11:07:06;4.60;1.00
